Oulan-Bator, Mongolie

19:38 ULAT le 02 septembre 2014 (GMT +0800)
Buyant-Ukhaa | Change Station
CLOSE
Current Station
Aéroport
Location: Ulaanbaatar,
Altitude: 4364 ft
Stations météo à proximité

Alt. 4364 ft 47.83 °N, 106.78 °E | Updated 8 minutes ago

Clear
Ciel dégagé
68 ° F
Paraît 68 ° F
N
7
Vent Variable Vent de Sud

Aujourd'hui
Haut(e) -- | Bas -- ° F
--% Risque de précip.
Hier
Haut(e) -- | Bas -- ° F
Precip. -- pouce
6:11 AM 7:32 PM
Lune montante, 50% visible
Pression 29.92 pouce
Visibilité -9999.0 Miles terrestres
Nuages
Point de rosée 34 ° F
Humidité 28%
Précipitations 0.00 pouce
Profondeur de la couche neigeuse Non disponible.
UV Non disponible.
Pollen Non disponible.
Qualité de l'air Non disponible.
Flu Activity Non disponible.
METAR ZMUB 021130Z 17003MPS CAVOK 20/01 Q1013 NOSIG RMK QFE652.8 29

More Conditions Fewer Conditions

Pression 29.92 pouce
Visibilité -9999.0 Miles terrestres
Nuages
Point de rosée 34 ° F
Humidité 28%
Précipitations 0.00 pouce
Profondeur de la couche neigeuse Non disponible.
UV Non disponible.
Pollen Non disponible.
Qualité de l'air Non disponible.
Flu Activity Non disponible.
METAR ZMUB 021130Z 17003MPS CAVOK 20/01 Q1013 NOSIG RMK QFE652.8 29

More Conditions Fewer Conditions

10-Day Weather Forecast

Almanac

Astronomie

Sep. 02, 2014 Lever Coucher
Temps réel 06:11 ULAT 19:32 ULAT
Crépuscule civil 05:39 ULAT 20:04 ULAT
Crépuscule nautique 05:00 ULAT 20:43 ULAT
Crépuscule astronomique 04:19 ULAT 21:24 ULAT
Lune 13:54 ULAT 23:26 ULAT
Durée de lumière visible 14h 24m
Longueur du jour
13h 20m
Tomorrow will be 3m 21s shorter.
Lune montante, 50% of the Moon is Illuminated
Aujourd'hui
Lune montante
Sep 8
Pleine lune
Sep 15
Dernier quartier
Sep 24
Nouveau
Oct 1
Premier quartier

Les extrêmes de température d’hier

Country Highs Country Lows

Community

WunderPhotos

Upload Photos

1,749,621 Photos téléchargées !

WunderBlogs® & News

By Dr. Jeff Masters
Director of Meteorology, Weather Underground
By Kari Strenfel
Meteorologist, Weather Underground
By Christopher C. Burt
Weather Historian, Weather Underground
September 2, 2014
September 2, 2014
September 2, 2014

Nearby

Qualité de l'air

Not available.

Épaisseur de neige

Not available.

Activité sismique

Ville Distance Mag. Time & Date
No recent earthquake activity has been reported nearby.
Minimum magnitude displayed is 2.5.

Températures des eaux côtières

Lieu Température
Aucun rapport de station

Stations météo à proximité